Observation data for Post on 04/23/2019      Previous  Date  Next       Current Mesonet Observations  Soil Data  Daily Summary Page  Observations in Plain Language
KPT1 230500Z 05004KT 15/15 A3002 RMK A01 T01520149  RH  100%=      5-min Rain = 0.01
KPT1 230505Z 04004KT 15/15 A3003 RMK A01 T01520149  RH  100%=      5-min Rain = 0
KPT1 230510Z 03005KT 15/15 A3003 RMK A01 T01520149  RH  100%=      5-min Rain = 0
KPT1 230515Z 04006KT 15/15 A3002 RMK A01 T01530149  RH  100%=      5-min Rain = 0
KPT1 230520Z 04004KT 15/15 A3002 RMK A01 T01520149  RH  100%=      5-min Rain = 0
KPT1 230525Z 02005KT 15/15 A3002 RMK A01 T01530149  RH  100%=      5-min Rain = 0
KPT1 230530Z 02007KT 15/15 A3002 RMK A01 T01530149  RH  100%=      5-min Rain = 0
KPT1 230535Z 02006KT 15/15 A3002 RMK A01 T01530149  RH  100%=      5-min Rain = 0
KPT1 230540Z 01007KT 15/15 A3002 RMK A01 T01530149  RH  100%=      5-min Rain = 0
KPT1 230545Z 00007KT 15/15 A3002 RMK A01 T01530150  RH  100%=      5-min Rain = 0
KPT1 230550Z 00008KT 15/15 A3001 RMK A01 T01530150  RH  100%=      5-min Rain = 0
KPT1 230555Z 00008KT 15/15 A3001 RMK A01 T01530150  RH  100%=      5-min Rain = 0
KPT1 230600Z 01008KT 15/15 A3001 RMK A01 T01530150  RH  100%=      5-min Rain = 0
KPT1 230605Z 01008KT 15/15 A30 RMK A01 T01530150  RH  100%=      5-min Rain = 0
KPT1 230610Z 01009KT 15/15 A3001 RMK A01 T01530149  RH  100%=      5-min Rain = 0
KPT1 230615Z 01010KT 15/15 A3001 RMK A01 T01520149  RH  100%=      5-min Rain = 0
KPT1 230620Z 01011KT 15/15 A3001 RMK A01 T01510148  RH  100%=      5-min Rain = 0
KPT1 230625Z 01009KT 15/15 A30 RMK A01 T01510148  RH  100%=      5-min Rain = 0
KPT1 230630Z 01009KT 15/15 A30 RMK A01 T01510147  RH  100%=      5-min Rain = 0
KPT1 230635Z 01008KT 15/15 A30 RMK A01 T01500147  RH  100%=      5-min Rain = 0
KPT1 230640Z 01008KT 15/15 A30 RMK A01 T01490146  RH  100%=      5-min Rain = 0
KPT1 230645Z 01009KT 15/15 A30 RMK A01 T01480145  RH  100%=      5-min Rain = 0
KPT1 230650Z 01009KT 15/15 A30 RMK A01 T01480145  RH  100%=      5-min Rain = 0
KPT1 230655Z 01009KT 15/14 A30 RMK A01 T01470144  RH  100%=      5-min Rain = 0
KPT1 230700Z 01008KT 15/14 A30 RMK A01 T01470144  RH  100%=      5-min Rain = 0
KPT1 230705Z 01008KT 15/14 A30 RMK A01 T01470144  RH  100%=      5-min Rain = 0
KPT1 230710Z 00008KT 15/14 A30 RMK A01 T01470144  RH  100%=      5-min Rain = 0
KPT1 230715Z 00008KT 15/14 A30 RMK A01 T01470144  RH  100%=      5-min Rain = 0
KPT1 230720Z 00008KT 15/14 A30 RMK A01 T01460143  RH  100%=      5-min Rain = 0
KPT1 230725Z 00008KT 15/14 A30 RMK A01 T01460143  RH  100%=      5-min Rain = 0
KPT1 230730Z 35007KT 15/14 A30 RMK A01 T01470143  RH  100%=      5-min Rain = 0
KPT1 230735Z 35007KT 15/14 A30 RMK A01 T01470144  RH  100%=      5-min Rain = 0
KPT1 230740Z 34007KT 15/14 A30 RMK A01 T01470143  RH  100%=      5-min Rain = 0
KPT1 230745Z 34006KT 15/14 A30 RMK A01 T01470144  RH  100%=      5-min Rain = 0
KPT1 230750Z 34007KT 15/14 A30 RMK A01 T01470144  RH  100%=      5-min Rain = 0
KPT1 230755Z 35008KT 15/14 A30 RMK A01 T01470143  RH  100%=      5-min Rain = 0
KPT1 230800Z 35006KT 15/14 A30 RMK A01 T01470143  RH  099%=      5-min Rain = 0
KPT1 230805Z 01006KT 15/14 A30 RMK A01 T01470143  RH  099%=      5-min Rain = 0
KPT1 230810Z 04007KT 15/14 A2999 RMK A01 T01470142  RH  099%=      5-min Rain = 0
KPT1 230815Z 04008KT 15/14 A2999 RMK A01 T01460142  RH  099%=      5-min Rain = 0
KPT1 230820Z 03008KT 15/14 A2998 RMK A01 T01450141  RH  099%=      5-min Rain = 0
KPT1 230825Z 03009KT 15/14 A2998 RMK A01 T01450141  RH  100%=      5-min Rain = 0
KPT1 230830Z 03009KT 14/14 A2998 RMK A01 T01440141  RH  100%=      5-min Rain = 0
KPT1 230835Z 03007G12KT 14/14 A2998 RMK A01 T01440140  RH  100%=      5-min Rain = 0
KPT1 230840Z 02008KT 14/14 A2998 RMK A01 T01430140  RH  100%=      5-min Rain = 0
KPT1 230845Z 03007KT 14/14 A2998 RMK A01 T01430140  RH  100%=      5-min Rain = 0
KPT1 230850Z 03007KT 14/14 A2997 RMK A01 T01430140  RH  100%=      5-min Rain = 0
KPT1 230855Z 04007KT 14/14 A2997 RMK A01 T01430140  RH  100%=      5-min Rain = 0
KPT1 230900Z 02006KT 14/14 A2997 RMK A01 T01420139  RH  100%=      5-min Rain = 0
KPT1 230905Z 01006KT 14/14 A2998 RMK A01 T01420139  RH  100%=      5-min Rain = 0
KPT1 230910Z 01005KT 14/14 A2998 RMK A01 T01430140  RH  100%=      5-min Rain = 0
KPT1 230915Z 01004KT 14/14 A2998 RMK A01 T01430140  RH  100%=      5-min Rain = 0
KPT1 230920Z 02004KT 14/14 A2998 RMK A01 T01420139  RH  100%=      5-min Rain = 0
KPT1 230925Z 01005KT 14/14 A2998 RMK A01 T01420139  RH  100%=      5-min Rain = 0
KPT1 230930Z 02003KT 14/14 A2998 RMK A01 T01420139  RH  100%=      5-min Rain = 0
KPT1 230935Z 05001KT 14/14 A2998 RMK A01 T01430139  RH  100%=      5-min Rain = 0
KPT1 230940Z 04005KT 14/14 A2998 RMK A01 T01420139  RH  100%=      5-min Rain = 0
KPT1 230945Z 34006KT 14/14 A2999 RMK A01 T01420139  RH  100%=      5-min Rain = 0
KPT1 230950Z 29009G17KT 14/14 A3001 RMK A01 T01430139  RH  100%=      5-min Rain = 0
KPT1 230955Z 29011G18KT 14/14 A3002 RMK A01 T01430139  RH  099%=      5-min Rain = 0
KPT1 231000Z 33007KT 14/14 A3001 RMK A01 T01420138  RH  099%=      5-min Rain = 0.01
KPT1 231005Z 36006KT 14/14 A3001 RMK A01 T01410137  RH  100%=      5-min Rain = 0
KPT1 231010Z 03006KT 14/14 A30 RMK A01 T01410137  RH  100%=      5-min Rain = 0
KPT1 231015Z 03005KT 14/14 A30 RMK A01 T01410138  RH  100%=      5-min Rain = 0
KPT1 231020Z 05004KT 14/14 A30 RMK A01 T01410137  RH  100%=      5-min Rain = 0
KPT1 231025Z 02004KT 14/14 A30 RMK A01 T01400137  RH  100%=      5-min Rain = 0
KPT1 231030Z 04003KT 14/14 A30 RMK A01 T01400137  RH  100%=      5-min Rain = 0
KPT1 231035Z 01003KT 14/14 A30 RMK A01 T01400137  RH  100%=      5-min Rain = 0
KPT1 231040Z 01001KT 14/14 A30 RMK A01 T01400137  RH  100%=      5-min Rain = 0
KPT1 231045Z 35003KT 14/14 A30 RMK A01 T01400137  RH  100%=      5-min Rain = 0
KPT1 231050Z 32003KT 14/14 A30 RMK A01 T01400137  RH  100%=      5-min Rain = 0
KPT1 231055Z 33003KT 14/14 A30 RMK A01 T01390136  RH  100%=      5-min Rain = 0
KPT1 231100Z 34004KT 14/14 A30 RMK A01 T01390136  RH  100%=      5-min Rain = 0
KPT1 231105Z 33005KT 14/14 A30 RMK A01 T01390136  RH  100%=      5-min Rain = 0
KPT1 231110Z 34005KT 14/14 A30 RMK A01 T01390136  RH  100%=      5-min Rain = 0
KPT1 231115Z 35005KT 14/14 A30 RMK A01 T01390136  RH  100%=      5-min Rain = 0
KPT1 231120Z 35006KT 14/14 A30 RMK A01 T01390136  RH  100%=      5-min Rain = 0
KPT1 231125Z 34009KT 14/14 A2999 RMK A01 T01390136  RH  100%=      5-min Rain = 0
KPT1 231130Z 35006KT 14/14 A2999 RMK A01 T01390136  RH  100%=      5-min Rain = 0
KPT1 231135Z 34006KT 14/14 A30 RMK A01 T01400137  RH  100%=      5-min Rain = 0
KPT1 231140Z 33007KT 14/14 A3001 RMK A01 T01410138  RH  100%=      5-min Rain = 0
KPT1 231145Z 33008KT 14/14 A30 RMK A01 T01400137  RH  100%=      5-min Rain = 0.01
KPT1 231150Z 35009KT 14/14 A30 RMK A01 T01400137  RH  100%=      5-min Rain = 0.01
KPT1 231155Z 00007KT 14/14 A30 RMK A01 T01390136  RH  100%=      5-min Rain = 0
KPT1 231200Z 36007KT 14/14 A30 RMK A01 T01390136  RH  100%=      5-min Rain = 0
KPT1 231205Z 01005KT 14/14 A3001 RMK A01 T01390136  RH  100%=      5-min Rain = 0
KPT1 231210Z 00005KT 14/14 A3001 RMK A01 T01390136  RH  100%=      5-min Rain = 0
KPT1 231215Z 01005KT 14/14 A3001 RMK A01 T01390136  RH  100%=      5-min Rain = 0.01
KPT1 231220Z 02004KT 14/14 A3001 RMK A01 T01390136  RH  100%=      5-min Rain = 0
KPT1 231225Z 04003KT 14/14 A3002 RMK A01 T01400136  RH  100%=      5-min Rain = 0
KPT1 231230Z 05002KT 14/14 A3003 RMK A01 T01400137  RH  100%=      5-min Rain = 0
KPT1 231235Z 03002KT 14/14 A3003 RMK A01 T01400137  RH  100%=      5-min Rain = 0
KPT1 231240Z 02001KT 14/14 A3004 RMK A01 T01400137  RH  100%=      5-min Rain = 0
KPT1 231245Z 26007KT 14/14 A3006 RMK A01 T01410138  RH  100%=      5-min Rain = 0
KPT1 231250Z 32008KT 14/14 A3005 RMK A01 T01400137  RH  100%=      5-min Rain = 0.12
KPT1 231255Z 00009KT 14/14 A3004 RMK A01 T01380135  RH  100%=      5-min Rain = 0.03
KPT1 231300Z 01011KT 14/13 A3003 RMK A01 T01360133  RH  100%=      5-min Rain = 0
KPT1 231305Z 00009KT 14/13 A3003 RMK A01 T01350132  RH  100%=      5-min Rain = 0
KPT1 231310Z 02008KT 14/13 A3003 RMK A01 T01350133  RH  100%=      5-min Rain = 0
KPT1 231315Z 03008KT 14/13 A3003 RMK A01 T01350133  RH  100%=      5-min Rain = 0
KPT1 231320Z 02004KT 14/13 A3004 RMK A01 T01350132  RH  100%=      5-min Rain = 0
KPT1 231325Z 26003KT 14/13 A3005 RMK A01 T01360133  RH  100%=      5-min Rain = 0
KPT1 231330Z 26003KT 14/13 A3005 RMK A01 T01370134  RH  100%=      5-min Rain = 0.01
KPT1 231335Z 31002KT 14/13 A3006 RMK A01 T01370134  RH  100%=      5-min Rain = 0
KPT1 231340Z 05003KT 14/13 A3006 RMK A01 T01370134  RH  100%=      5-min Rain = 0.01
KPT1 231345Z 09007KT 14/13 A3006 RMK A01 T01370134  RH  100%=      5-min Rain = 0
KPT1 231350Z 06005KT 14/13 A3006 RMK A01 T01370134  RH  100%=      5-min Rain = 0.01
KPT1 231355Z 01008KT 14/13 A3004 RMK A01 T01370134  RH  100%=      5-min Rain = 0.01
KPT1 231400Z 05005KT 14/13 A3005 RMK A01 T01370134  RH  100%=      5-min Rain = 0
KPT1 231405Z 10006KT 14/13 A3006 RMK A01 T01370134  RH  100%=      5-min Rain = 0.01
KPT1 231410Z 05009KT 14/13 A3004 RMK A01 T01360133  RH  100%=      5-min Rain = 0
KPT1 231415Z 05004G9KT 14/13 A3004 RMK A01 T01360133  RH  100%=      5-min Rain = 0.01
KPT1 231420Z 12002KT 14/13 A3005 RMK A01 T01360133  RH  100%=      5-min Rain = 0
KPT1 231425Z 10005KT 14/13 A3004 RMK A01 T01360133  RH  100%=      5-min Rain = 0.01
KPT1 231430Z 07005KT 14/13 A3004 RMK A01 T01360133  RH  100%=      5-min Rain = 0
KPT1 231435Z 04004KT 14/13 A3005 RMK A01 T01360133  RH  100%=      5-min Rain = 0
KPT1 231440Z 03006KT 14/13 A3004 RMK A01 T01370134  RH  100%=      5-min Rain = 0
KPT1 231445Z 02007KT 14/13 A3004 RMK A01 T01370134  RH  100%=      5-min Rain = 0
KPT1 231450Z 03007KT 14/14 A3004 RMK A01 T01380135  RH  100%=      5-min Rain = 0
KPT1 231455Z 03009KT 14/14 A3003 RMK A01 T01380135  RH  100%=      5-min Rain = 0
KPT1 231500Z 03008KT 14/14 A3003 RMK A01 T01390136  RH  100%=      5-min Rain = 0
KPT1 231505Z 03009KT 14/14 A3003 RMK A01 T01400136  RH  100%=      5-min Rain = 0
KPT1 231510Z 03008KT 14/14 A3003 RMK A01 T01410138  RH  100%=      5-min Rain = 0
KPT1 231515Z 02009KT 14/14 A3003 RMK A01 T01400137  RH  100%=      5-min Rain = 0
KPT1 231520Z 02008KT 14/14 A3004 RMK A01 T01400137  RH  100%=      5-min Rain = 0
KPT1 231525Z 03008KT 14/14 A3004 RMK A01 T01400137  RH  100%=      5-min Rain = 0
KPT1 231530Z 04008KT 14/14 A3004 RMK A01 T01400137  RH  100%=      5-min Rain = 0
KPT1 231535Z 04007KT 14/14 A3004 RMK A01 T01420139  RH  100%=      5-min Rain = 0
KPT1 231540Z 04009KT 15/14 A3004 RMK A01 T01470144  RH  100%=      5-min Rain = 0
KPT1 231545Z 04009KT 15/14 A3004 RMK A01 T01470144  RH  100%=      5-min Rain = 0
KPT1 231550Z 03009KT 15/15 A3004 RMK A01 T01490145  RH  100%=      5-min Rain = 0
KPT1 231555Z 05009KT 15/15 A3004 RMK A01 T01490146  RH  100%=      5-min Rain = 0
KPT1 231600Z 03009KT 15/15 A3004 RMK A01 T01500147  RH  100%=      5-min Rain = 0
KPT1 231605Z 02010KT 15/15 A3004 RMK A01 T01500147  RH  100%=      5-min Rain = 0
KPT1 231610Z 01011KT 15/15 A3004 RMK A01 T01510147  RH  099%=      5-min Rain = 0
KPT1 231615Z 02008KT 15/15 A3004 RMK A01 T01530147  RH  099%=      5-min Rain = 0
KPT1 231620Z 03009KT 15/15 A3004 RMK A01 T01540147  RH  098%=      5-min Rain = 0
KPT1 231625Z 03008KT 16/15 A3004 RMK A01 T01550146  RH  097%=      5-min Rain = 0
KPT1 231630Z 04007KT 16/15 A3004 RMK A01 T01580147  RH  095%=      5-min Rain = 0
KPT1 231635Z 05006KT 16/14 A3005 RMK A01 T01570144  RH  093%=      5-min Rain = 0
KPT1 231640Z 04005KT 16/14 A3005 RMK A01 T01570143  RH  093%=      5-min Rain = 0
KPT1 231645Z 03005KT 16/14 A3005 RMK A01 T01570144  RH  094%=      5-min Rain = 0
KPT1 231650Z 02007KT 16/14 A3005 RMK A01 T01580143  RH  093%=      5-min Rain = 0
KPT1 231655Z 02007KT 16/14 A3005 RMK A01 T01580141  RH  092%=      5-min Rain = 0
KPT1 231700Z 02008KT 16/14 A3005 RMK A01 T01570141  RH  092%=      5-min Rain = 0
KPT1 231705Z 02007KT 16/14 A3005 RMK A01 T01580142  RH  092%=      5-min Rain = 0
KPT1 231710Z 02008KT 16/14 A3005 RMK A01 T01580140  RH  091%=      5-min Rain = 0
KPT1 231715Z 02007KT 16/14 A3005 RMK A01 T01600141  RH  090%=      5-min Rain = 0
KPT1 231720Z 04006KT 16/14 A3005 RMK A01 T01620140  RH  089%=      5-min Rain = 0
KPT1 231725Z 05005KT 17/14 A3005 RMK A01 T01650143  RH  089%=      5-min Rain = 0
KPT1 231730Z 04005KT 17/14 A3005 RMK A01 T01650137  RH  085%=      5-min Rain = 0
KPT1 231735Z 05004KT 17/14 A3005 RMK A01 T01680138  RH  084%=      5-min Rain = 0
KPT1 231740Z 05004KT 18/14 A3005 RMK A01 T01760141  RH  082%=      5-min Rain = 0
KPT1 231745Z 05004KT 18/14 A3005 RMK A01 T01750137  RH  080%=      5-min Rain = 0
KPT1 231750Z 05005KT 17/14 A3005 RMK A01 T01730136  RH  080%=      5-min Rain = 0
KPT1 231755Z 06004KT 17/14 A3005 RMK A01 T01740139  RH  082%=      5-min Rain = 0
KPT1 231800Z 07005KT 17/14 A3004 RMK A01 T01740138  RH  081%=      5-min Rain = 0
KPT1 231805Z 08004KT 18/14 A3004 RMK A01 T01760139  RH  080%=      5-min Rain = 0
KPT1 231810Z 09004KT 18/14 A3004 RMK A01 T01780138  RH  079%=      5-min Rain = 0
KPT1 231815Z 09005KT 18/13 A3004 RMK A01 T01790134  RH  077%=      5-min Rain = 0
KPT1 231820Z 09003KT 18/13 A3004 RMK A01 T01810133  RH  075%=      5-min Rain = 0
KPT1 231825Z 07005KT 18/13 A3004 RMK A01 T01810132  RH  075%=      5-min Rain = 0
KPT1 231830Z 08005KT 18/14 A3004 RMK A01 T01840136  RH  075%=      5-min Rain = 0
KPT1 231835Z 09005KT 18/14 A3003 RMK A01 T01830136  RH  075%=      5-min Rain = 0
KPT1 231840Z 08005KT 18/13 A3003 RMK A01 T01820134  RH  075%=      5-min Rain = 0
KPT1 231845Z 08004KT 18/13 A3003 RMK A01 T01810133  RH  075%=      5-min Rain = 0
KPT1 231850Z 07004KT 18/14 A3003 RMK A01 T01820136  RH  076%=      5-min Rain = 0
KPT1 231855Z 07006KT 18/14 A3003 RMK A01 T01820139  RH  077%=      5-min Rain = 0
KPT1 231900Z 07005KT 18/14 A3003 RMK A01 T01810137  RH  077%=      5-min Rain = 0
KPT1 231905Z 06006KT 18/14 A3003 RMK A01 T01810139  RH  078%=      5-min Rain = 0
KPT1 231910Z 08006KT 18/14 A3003 RMK A01 T01810138  RH  078%=      5-min Rain = 0
KPT1 231915Z 06005KT 18/13 A3002 RMK A01 T01810134  RH  076%=      5-min Rain = 0
KPT1 231920Z 08005KT 18/13 A3002 RMK A01 T01830134  RH  075%=      5-min Rain = 0
KPT1 231925Z 07004KT 19/14 A3002 RMK A01 T01860138  RH  075%=      5-min Rain = 0
KPT1 231930Z 07004KT 19/14 A3002 RMK A01 T01880139  RH  075%=      5-min Rain = 0
KPT1 231935Z 06005KT 19/14 A3002 RMK A01 T01880141  RH  076%=      5-min Rain = 0
KPT1 231940Z 06005KT 19/14 A3002 RMK A01 T01860137  RH  074%=      5-min Rain = 0
KPT1 231945Z 06006KT 19/14 A3002 RMK A01 T01860137  RH  075%=      5-min Rain = 0
KPT1 231950Z 09004KT 19/14 A3002 RMK A01 T01850135  RH  074%=      5-min Rain = 0
KPT1 231955Z 08005KT 19/13 A3002 RMK A01 T01850134  RH  074%=      5-min Rain = 0
KPT1 232000Z 07005KT 18/13 A3002 RMK A01 T01820133  RH  074%=      5-min Rain = 0
KPT1 232005Z 06004KT 18/14 A3002 RMK A01 T01830135  RH  075%=      5-min Rain = 0
KPT1 232010Z 06006KT 18/14 A3002 RMK A01 T01830136  RH  075%=      5-min Rain = 0
KPT1 232015Z 05004KT 18/13 A3002 RMK A01 T01830134  RH  075%=      5-min Rain = 0
KPT1 232020Z 04005KT 18/13 A3002 RMK A01 T01820134  RH  075%=      5-min Rain = 0
KPT1 232025Z 05006KT 18/14 A3002 RMK A01 T01830135  RH  075%=      5-min Rain = 0
KPT1 232030Z 04006KT 18/14 A3001 RMK A01 T01820136  RH  076%=      5-min Rain = 0
KPT1 232035Z 04007KT 18/14 A3001 RMK A01 T01810139  RH  078%=      5-min Rain = 0
KPT1 232040Z 03008KT 18/14 A3001 RMK A01 T01800140  RH  079%=      5-min Rain = 0
KPT1 232045Z 02008KT 18/14 A3001 RMK A01 T01800140  RH  079%=      5-min Rain = 0
KPT1 232050Z 03008KT 18/14 A3001 RMK A01 T01790138  RH  078%=      5-min Rain = 0
KPT1 232055Z 03007KT 18/14 A3001 RMK A01 T01790138  RH  079%=      5-min Rain = 0
KPT1 232100Z 03008KT 18/14 A3001 RMK A01 T01770137  RH  079%=      5-min Rain = 0
KPT1 232105Z 03009KT 18/14 A30 RMK A01 T01760138  RH  080%=      5-min Rain = 0
KPT1 232110Z 03010KT 17/14 A30 RMK A01 T01740138  RH  081%=      5-min Rain = 0
KPT1 232115Z 02012G19KT 17/14 A30 RMK A01 T01720137  RH  082%=      5-min Rain = 0
KPT1 232120Z 01014G19KT 16/14 A30 RMK A01 T01580135  RH  088%=      5-min Rain = 0
KPT1 232125Z 01011KT 16/14 A30 RMK A01 T01570137  RH  090%=      5-min Rain = 0
KPT1 232130Z 01013KT 16/14 A30 RMK A01 T01570136  RH  089%=      5-min Rain = 0
KPT1 232135Z 01013G19KT 16/13 A30 RMK A01 T01550134  RH  089%=      5-min Rain = 0
KPT1 232140Z 01013KT 15/13 A30 RMK A01 T01540134  RH  090%=      5-min Rain = 0
KPT1 232145Z 02012KT 15/13 A30 RMK A01 T01530133  RH  090%=      5-min Rain = 0
KPT1 232150Z 01012KT 15/13 A2999 RMK A01 T01530133  RH  090%=      5-min Rain = 0
KPT1 232155Z 02012KT 15/13 A2999 RMK A01 T01530133  RH  090%=      5-min Rain = 0
KPT1 232200Z 02012KT 15/13 A2999 RMK A01 T01510132  RH  090%=      5-min Rain = 0
KPT1 232205Z 02013KT 15/13 A2999 RMK A01 T01490130  RH  090%=      5-min Rain = 0
KPT1 232210Z 02013G18KT 15/13 A2999 RMK A01 T01480129  RH  090%=      5-min Rain = 0
KPT1 232215Z 02013KT 15/13 A2999 RMK A01 T01480128  RH  089%=      5-min Rain = 0
KPT1 232220Z 02011KT 15/13 A2999 RMK A01 T01490128  RH  089%=      5-min Rain = 0
KPT1 232225Z 01010G15KT 15/13 A30 RMK A01 T01490128  RH  089%=      5-min Rain = 0
KPT1 232230Z 02012KT 15/13 A30 RMK A01 T01480127  RH  089%=      5-min Rain = 0
KPT1 232235Z 02012G18KT 15/13 A30 RMK A01 T01470126  RH  089%=      5-min Rain = 0
KPT1 232240Z 01012KT 15/13 A2999 RMK A01 T01470126  RH  089%=      5-min Rain = 0
KPT1 232245Z 02010KT 15/13 A2999 RMK A01 T01470127  RH  089%=      5-min Rain = 0
KPT1 232250Z 03011G16KT 15/13 A2999 RMK A01 T01460127  RH  090%=      5-min Rain = 0
KPT1 232255Z 02012KT 15/13 A2999 RMK A01 T01450126  RH  090%=      5-min Rain = 0
KPT1 232300Z 02012G17KT 14/13 A2999 RMK A01 T01440125  RH  090%=      5-min Rain = 0
KPT1 232305Z 02013G19KT 14/13 A2999 RMK A01 T01440125  RH  090%=      5-min Rain = 0
KPT1 232310Z 01013KT 14/13 A2999 RMK A01 T01430125  RH  090%=      5-min Rain = 0
KPT1 232315Z 01014G19KT 14/13 A2999 RMK A01 T01430125  RH  091%=      5-min Rain = 0
KPT1 232320Z 02013KT 14/12 A2999 RMK A01 T01410124  RH  091%=      5-min Rain = 0
KPT1 232325Z 02014KT 14/12 A30 RMK A01 T01400123  RH  091%=      5-min Rain = 0
KPT1 232330Z 02011KT 14/12 A30 RMK A01 T01400124  RH  092%=      5-min Rain = 0
KPT1 232335Z 01012G17KT 14/12 A2999 RMK A01 T01400123  RH  091%=      5-min Rain = 0
KPT1 232340Z 01012G17KT 14/12 A2999 RMK A01 T01380121  RH  091%=      5-min Rain = 0
KPT1 232345Z 01011KT 14/12 A2999 RMK A01 T01390122  RH  091%=      5-min Rain = 0
KPT1 232350Z 01013G18KT 14/12 A2999 RMK A01 T01390121  RH  091%=      5-min Rain = 0
KPT1 232355Z 01011G16KT 14/12 A2999 RMK A01 T01390121  RH  090%=      5-min Rain = 0
KPT1 240000Z 02011KT 14/12 A2999 RMK A01 T01390121  RH  090%=      5-min Rain = 0
KPT1 240005Z 01011KT 14/12 A2999 RMK A01 T01390121  RH  090%=      5-min Rain = 0
KPT1 240010Z 01009KT 14/12 A30 RMK A01 T01400121  RH  090%=      5-min Rain = 0
KPT1 240015Z 02010KT 14/12 A30 RMK A01 T01390120  RH  090%=      5-min Rain = 0
KPT1 240020Z 02010KT 14/12 A30 RMK A01 T01390120  RH  090%=      5-min Rain = 0
KPT1 240025Z 02009KT 14/12 A30 RMK A01 T01390121  RH  091%=      5-min Rain = 0
KPT1 240030Z 02009KT 14/12 A30 RMK A01 T01390122  RH  091%=      5-min Rain = 0
KPT1 240035Z 02010KT 14/12 A3001 RMK A01 T01380121  RH  091%=      5-min Rain = 0
KPT1 240040Z 02011KT 14/12 A3002 RMK A01 T01360121  RH  092%=      5-min Rain = 0
KPT1 240045Z 02010KT 14/12 A3001 RMK A01 T01350122  RH  094%=      5-min Rain = 0
KPT1 240050Z 02010KT 13/12 A3001 RMK A01 T01330123  RH  096%=      5-min Rain = 0
KPT1 240055Z 02009KT 13/12 A3001 RMK A01 T01320124  RH  097%=      5-min Rain = 0
KPT1 240100Z 02009KT 13/13 A3001 RMK A01 T01320125  RH  098%=      5-min Rain = 0
KPT1 240105Z 01008KT 13/13 A30 RMK A01 T01320126  RH  098%=      5-min Rain = 0
KPT1 240110Z 00009KT 13/13 A30 RMK A01 T01320126  RH  098%=      5-min Rain = 0
KPT1 240115Z 01009KT 13/13 A30 RMK A01 T01320126  RH  098%=      5-min Rain = 0
KPT1 240120Z 01007KT 13/13 A30 RMK A01 T01320126  RH  098%=      5-min Rain = 0
KPT1 240125Z 02007KT 13/13 A3001 RMK A01 T01320126  RH  098%=      5-min Rain = 0
KPT1 240130Z 02008KT 13/13 A30 RMK A01 T01330126  RH  097%=      5-min Rain = 0
KPT1 240135Z 01010KT 13/13 A2999 RMK A01 T01330126  RH  097%=      5-min Rain = 0
KPT1 240140Z 01010KT 13/13 A2999 RMK A01 T01330125  RH  097%=      5-min Rain = 0
KPT1 240145Z 01009KT 13/12 A2999 RMK A01 T01320124  RH  096%=      5-min Rain = 0
KPT1 240150Z 00008KT 13/12 A2999 RMK A01 T01320124  RH  096%=      5-min Rain = 0
KPT1 240155Z 01007KT 13/12 A2999 RMK A01 T01320123  RH  096%=      5-min Rain = 0
KPT1 240200Z 02005KT 13/12 A30 RMK A01 T01320124  RH  097%=      5-min Rain = 0
KPT1 240205Z 04004KT 13/13 A3001 RMK A01 T01330125  RH  097%=      5-min Rain = 0
KPT1 240210Z 05003KT 13/13 A3001 RMK A01 T01330126  RH  097%=      5-min Rain = 0
KPT1 240215Z 05004KT 13/13 A3001 RMK A01 T01340127  RH  097%=      5-min Rain = 0
KPT1 240220Z 09004KT 13/13 A3002 RMK A01 T01340126  RH  097%=      5-min Rain = 0
KPT1 240225Z 09004KT 13/13 A3003 RMK A01 T01340126  RH  097%=      5-min Rain = 0
KPT1 240230Z 06004KT 13/13 A3002 RMK A01 T01330126  RH  097%=      5-min Rain = 0
KPT1 240235Z 04006KT 13/13 A3001 RMK A01 T01340127  RH  098%=      5-min Rain = 0
KPT1 240240Z 03006KT 13/13 A30 RMK A01 T01330127  RH  098%=      5-min Rain = 0
KPT1 240245Z 02006KT 13/13 A3001 RMK A01 T01330126  RH  097%=      5-min Rain = 0
KPT1 240250Z 02005KT 13/13 A3001 RMK A01 T01330125  RH  097%=      5-min Rain = 0
KPT1 240255Z 02004KT 13/13 A3002 RMK A01 T01330125  RH  097%=      5-min Rain = 0
KPT1 240300Z 02004KT 13/13 A3002 RMK A01 T01330125  RH  096%=      5-min Rain = 0
KPT1 240305Z 02005KT 13/12 A3002 RMK A01 T01330124  RH  096%=      5-min Rain = 0
KPT1 240310Z 02005KT 13/12 A3002 RMK A01 T01320124  RH  097%=      5-min Rain = 0
KPT1 240315Z 00005KT 13/12 A3002 RMK A01 T01320124  RH  097%=      5-min Rain = 0
KPT1 240320Z 36005KT 13/12 A3002 RMK A01 T01320123  RH  096%=      5-min Rain = 0
KPT1 240325Z 00008KT 13/12 A3002 RMK A01 T01320123  RH  096%=      5-min Rain = 0
KPT1 240330Z 36007KT 13/12 A3001 RMK A01 T01320123  RH  096%=      5-min Rain = 0
KPT1 240335Z 36006KT 13/12 A3002 RMK A01 T01310123  RH  097%=      5-min Rain = 0
KPT1 240340Z 36005KT 13/12 A3002 RMK A01 T01310123  RH  097%=      5-min Rain = 0
KPT1 240345Z 00004KT 13/12 A3003 RMK A01 T01310122  RH  096%=      5-min Rain = 0
KPT1 240350Z 01003KT 13/12 A3004 RMK A01 T01300122  RH  097%=      5-min Rain = 0
KPT1 240355Z 01003KT 13/12 A3004 RMK A01 T01300122  RH  097%=      5-min Rain = 0
KPT1 240400Z 01002KT 13/12 A3005 RMK A01 T01300122  RH  097%=      5-min Rain = 0
KPT1 240405Z 03002KT 13/12 A3005 RMK A01 T01300122  RH  097%=      5-min Rain = 0
KPT1 240410Z 01002KT 13/12 A3005 RMK A01 T01300122  RH  097%=      5-min Rain = 0
KPT1 240415Z 04002KT 13/12 A3005 RMK A01 T01290123  RH  097%=      5-min Rain = 0
KPT1 240420Z 05003KT 13/12 A3004 RMK A01 T01290122  RH  098%=      5-min Rain = 0
KPT1 240425Z 03004KT 13/12 A3004 RMK A01 T01280123  RH  098%=      5-min Rain = 0
KPT1 240430Z 04004KT 13/12 A3004 RMK A01 T01280123  RH  099%=      5-min Rain = 0
KPT1 240435Z 05005KT 13/12 A3003 RMK A01 T01270123  RH  099%=      5-min Rain = 0
KPT1 240440Z 06004KT 13/12 A3002 RMK A01 T01270123  RH  100%=      5-min Rain = 0
KPT1 240445Z 08004KT 13/12 A3003 RMK A01 T01260123  RH  100%=      5-min Rain = 0
KPT1 240450Z 08004KT 13/12 A3003 RMK A01 T01260123  RH  100%=      5-min Rain = 0
KPT1 240455Z 09003KT 13/12 A3002 RMK A01 T01250123  RH  100%=      5-min Rain = 0

Page generated in 0.0097 seconds.